Terminal Aerodrome Forecast
Issued by NWS Duluth, MN

Home | Current Version | Previous Version | Text Only | Print | Product List | Glossary On
Versions: 1 2 3 4 5 6 7 8 9 10 11 12 13 14 15 16 17 18 19 20 21 22 23 24 25
000
FTUS43 KDLH 252002 AAC
TAFDLH
TAF AMD
KDLH 252002Z 2520/2618 33013G23KT P6SM SCT030 BKN040
     FM252100 33013G25KT P6SM VCSH BKN045
     FM260100 33011KT P6SM SCT070
     FM260300 32004KT P6SM SCT100=

USA.gov is the U.S. government's official web portal to all federal, state and local government web resources and services.